Time;durP1;ratioP1;P1;durP2;ratioP2;P2;SDS_P1;SDS_P2;PMS_P1;PMS_P2;Temp;Humidity;BMP_temperature;BMP_pressure;BME280_temperature;BME280_humidity;BME280_pressure;Samples;Min_cycle;Max_cycle;Signal;HPM_P1;HPM_P2
2022/05/29 00:01:54;;;;;;;11.88;4.30;;;10.50;99.90;;;;;;5029265;28;20047;-75
2022/05/29 00:04:20;;;;;;;11.90;4.38;;;10.50;99.90;;;;;;5030048;28;20045;-76
2022/05/29 00:06:48;;;;;;;9.18;3.25;;;10.50;99.90;;;;;;5045403;28;20164;-75
2022/05/29 00:09:18;;;;;;;11.27;3.83;;;10.50;99.90;;;;;;5008067;22;20659;-74
2022/05/29 00:11:44;;;;;;;10.45;4.30;;;10.50;99.90;;;;;;4973354;28;20045;-74
2022/05/29 00:14:09;;;;;;;10.35;3.85;;;10.50;99.90;;;;;;4992379;28;20104;-74
2022/05/29 00:16:35;;;;;;;12.40;4.20;;;10.50;99.90;;;;;;4990966;28;20133;-74
2022/05/29 00:19:00;;;;;;;13.27;4.35;;;10.50;99.90;;;;;;5008677;28;20570;-74
2022/05/29 00:21:28;;;;;;;14.57;4.55;;;10.50;99.90;;;;;;4991870;28;20076;-74
2022/05/29 00:23:53;;;;;;;12.70;3.83;;;10.50;99.90;;;;;;4991649;28;20073;-73
2022/05/29 00:26:20;;;;;;;11.02;4.03;;;10.50;99.90;;;;;;4992558;28;20085;-74
2022/05/29 00:28:46;;;;;;;9.50;3.90;;;10.40;99.90;;;;;;4992488;28;20049;-74
2022/05/29 00:31:13;;;;;;;11.13;4.05;;;10.50;99.90;;;;;;5001313;28;20148;-74
2022/05/29 00:33:42;;;;;;;9.93;4.03;;;10.40;99.90;;;;;;5000044;28;20056;-74
2022/05/29 00:36:10;;;;;;;9.98;3.70;;;10.40;99.90;;;;;;4992661;28;20042;-74
2022/05/29 00:38:39;;;;;;;10.98;4.05;;;10.30;99.90;;;;;;5001483;28;20483;-74
2022/05/29 00:41:19;;;;;;;13.68;4.03;;;10.30;99.90;;;;;;5000740;28;20037;-74
2022/05/29 00:44:13;;;;;;;10.27;3.45;;;10.30;99.90;;;;;;5016140;28;20441;-74
2022/05/29 00:46:44;;;;;;;12.05;4.22;;;10.20;99.90;;;;;;4994703;28;20068;-74
2022/05/29 00:49:12;;;;;;;10.48;3.92;;;10.20;99.90;;;;;;5010070;28;20042;-73
2022/05/29 00:51:42;;;;;;;7.97;3.05;;;10.20;99.90;;;;;;4993917;28;20048;-73
2022/05/29 00:54:08;;;;;;;11.02;3.15;;;10.20;99.90;;;;;;4990625;28;20034;-73
2022/05/29 00:56:36;;;;;;;14.55;3.53;;;10.30;99.90;;;;;;4993465;28;20663;-73
2022/05/29 00:59:03;;;;;;;11.25;2.92;;;10.30;99.90;;;;;;4964616;28;20049;-74
2022/05/29 01:01:29;;;;;;;11.77;3.35;;;10.30;99.90;;;;;;4993900;28;20125;-74
2022/05/29 01:03:55;;;;;;;10.93;3.40;;;10.30;99.90;;;;;;4989931;28;20108;-73
2022/05/29 01:06:21;;;;;;;12.65;3.67;;;10.20;99.90;;;;;;4989671;28;20403;-73
2022/05/29 01:08:47;;;;;;;13.48;3.60;;;10.20;99.90;;;;;;4991031;28;20054;-74
2022/05/29 01:11:37;;;;;;;9.43;3.50;;;10.20;99.90;;;;;;4993366;28;20050;-74
2022/05/29 01:14:40;;;;;;;9.48;3.20;;;10.20;99.90;;;;;;4989651;28;20666;-74
2022/05/29 01:17:18;;;;;;;9.85;2.88;;;10.10;99.90;;;;;;4987528;28;20597;-74
2022/05/29 01:20:25;;;;;;;9.60;3.50;;;10.10;99.90;;;;;;4991921;28;20041;-74
2022/05/29 01:23:09;;;;;;;14.93;3.47;;;10.10;99.90;;;;;;4953132;28;20058;-74
2022/05/29 01:26:00;;;;;;;11.95;3.75;;;10.10;99.90;;;;;;4993645;28;20132;-73
2022/05/29 01:28:48;;;;;;;7.85;3.67;;;10.10;99.90;;;;;;4992830;28;20042;-73
2022/05/29 01:31:24;;;;;;;9.32;3.22;;;10.10;99.90;;;;;;4992468;28;20412;-74
2022/05/29 01:34:08;;;;;;;11.02;3.50;;;10.10;99.90;;;;;;4993513;28;20034;-74
2022/05/29 01:36:41;;;;;;;11.77;3.50;;;10.10;99.90;;;;;;4991729;28;20070;-74
2022/05/29 01:39:12;;;;;;;11.35;3.90;;;10.10;99.90;;;;;;5017004;28;20596;-74
2022/05/29 01:41:51;;;;;;;14.90;3.83;;;10.10;99.90;;;;;;4992541;28;20492;-74
2022/05/29 01:44:29;;;;;;;7.18;2.90;;;10.10;99.90;;;;;;4994810;28;20483;-73
2022/05/29 01:47:01;;;;;;;12.35;3.50;;;10.10;99.90;;;;;;4991177;28;20503;-73
2022/05/29 01:49:30;;;;;;;7.82;3.20;;;10.10;99.90;;;;;;4995499;28;20038;-73
2022/05/29 01:52:35;;;;;;;12.57;3.85;;;10.10;99.90;;;;;;4993640;28;20045;-73
2022/05/29 01:55:09;;;;;;;14.48;3.78;;;10.10;99.90;;;;;;4931338;29;20047;-73
2022/05/29 01:57:38;;;;;;;13.82;3.05;;;10.00;99.90;;;;;;4989025;28;20057;-74
2022/05/29 02:00:10;;;;;;;8.82;3.33;;;10.00;99.90;;;;;;5006689;28;20111;-74
2022/05/29 02:02:41;;;;;;;;;;;10.00;99.90;;;;;;4996236;28;20132;-74
2022/05/29 02:05:12;;;;;;;10.57;3.90;;;10.00;99.90;;;;;;4995308;28;20005;-74
2022/05/29 02:07:48;;;;;;;10.93;3.30;;;10.00;99.90;;;;;;4994968;28;20309;-74
2022/05/29 02:10:22;;;;;;;9.60;3.00;;;10.00;99.90;;;;;;4974344;28;20168;-74
2022/05/29 02:12:57;;;;;;;8.60;2.90;;;10.00;99.90;;;;;;4994936;28;20080;-74
2022/05/29 02:15:31;;;;;;;11.75;3.72;;;10.00;99.90;;;;;;4995073;28;20100;-74
2022/05/29 02:18:01;;;;;;;12.23;3.70;;;10.00;99.90;;;;;;4993589;28;20454;-74
2022/05/29 02:20:32;;;;;;;12.25;3.75;;;10.00;99.90;;;;;;4996165;28;20037;-74
2022/05/29 02:23:06;;;;;;;8.43;3.13;;;10.00;99.90;;;;;;4989498;28;20053;-74
2022/05/29 02:25:34;;;;;;;10.98;3.67;;;10.00;99.90;;;;;;4993278;28;20049;-74
2022/05/29 02:28:25;;;;;;;10.90;4.07;;;10.00;99.90;;;;;;4977502;28;20069;-74
2022/05/29 02:31:04;;;;;;;12.77;4.22;;;10.00;99.90;;;;;;5011749;28;20038;-74
2022/05/29 02:34:07;;;;;;;8.40;3.30;;;10.00;99.90;;;;;;5011107;28;20452;-73
2022/05/29 02:37:16;;;;;;;8.40;2.95;;;10.00;99.90;;;;;;4973320;28;20038;-74
2022/05/29 02:39:57;;;;;;;11.55;4.10;;;9.90;99.90;;;;;;4973858;28;20069;-74
2022/05/29 02:42:55;;;;;;;9.35;3.70;;;10.00;99.90;;;;;;4994651;28;20046;-74
2022/05/29 02:45:32;;;;;;;9.10;3.60;;;10.00;99.90;;;;;;4976614;28;20054;-74
2022/05/29 02:48:32;;;;;;;10.45;3.47;;;10.00;99.90;;;;;;4995369;28;20038;-74
2022/05/29 02:51:12;;;;;;;13.10;4.20;;;10.00;99.90;;;;;;4996049;28;20045;-74
2022/05/29 02:53:43;;;;;;;10.35;3.70;;;10.00;99.90;;;;;;4993884;28;20084;-74
2022/05/29 02:56:08;;;;;;;10.00;3.40;;;10.00;99.90;;;;;;4994322;28;20046;-74
2022/05/29 02:58:36;;;;;;;10.73;3.58;;;10.00;99.90;;;;;;4977043;28;20037;-74
2022/05/29 03:01:33;;;;;;;12.55;3.75;;;10.00;99.90;;;;;;4993134;28;20033;-74
2022/05/29 03:04:23;;;;;;;12.80;3.75;;;10.00;99.90;;;;;;4994277;28;20168;-74
2022/05/29 03:06:55;;;;;;;12.23;3.90;;;10.00;99.90;;;;;;4972719;28;20038;-74
2022/05/29 03:09:49;;;;;;;10.30;3.25;;;10.00;99.90;;;;;;4992874;28;20100;-74
2022/05/29 03:12:45;;;;;;;14.07;4.00;;;10.00;99.90;;;;;;4993307;28;20112;-73
2022/05/29 03:15:54;;;;;;;17.67;4.88;;;10.00;99.90;;;;;;5009172;28;20444;-73
2022/05/29 03:18:39;;;;;;;12.20;3.70;;;10.00;99.90;;;;;;4989074;28;20062;-74
2022/05/29 03:21:16;;;;;;;11.95;3.50;;;10.00;99.90;;;;;;4993176;28;20045;-73
2022/05/29 03:23:48;;;;;;;11.63;3.92;;;10.10;99.90;;;;;;5007649;28;20034;-73
2022/05/29 03:26:40;;;;;;;11.52;3.83;;;10.00;99.90;;;;;;4993377;28;20033;-73
2022/05/29 03:29:17;;;;;;;10.55;3.58;;;10.00;99.90;;;;;;4939106;28;20052;-74
2022/05/29 03:31:45;;;;;;;12.93;3.67;;;10.00;99.90;;;;;;4992576;28;20088;-73
2022/05/29 03:34:13;;;;;;;11.45;2.80;;;10.00;99.90;;;;;;4991576;28;20065;-74
2022/05/29 03:36:50;;;;;;;11.45;3.05;;;10.00;99.90;;;;;;4990628;28;20092;-74
2022/05/29 03:39:17;;;;;;;10.48;2.97;;;10.00;99.90;;;;;;4984490;28;20703;-73
2022/05/29 03:41:48;;;;;;;9.32;2.88;;;10.00;99.90;;;;;;4994025;28;20040;-73
2022/05/29 03:44:16;;;;;;;9.15;2.85;;;10.00;99.90;;;;;;4993392;28;20049;-73
2022/05/29 03:46:44;;;;;;;9.98;2.80;;;10.00;99.90;;;;;;4991502;28;20484;-74
2022/05/29 03:49:11;;;;;;;12.95;3.45;;;10.00;99.90;;;;;;4992555;28;20038;-74
2022/05/29 03:51:37;;;;;;;9.75;2.70;;;10.00;99.90;;;;;;4990306;28;20104;-74
2022/05/29 03:54:04;;;;;;;8.18;2.47;;;10.00;99.90;;;;;;4990706;28;20046;-74
2022/05/29 03:56:31;;;;;;;6.75;2.47;;;10.10;99.90;;;;;;4990205;28;20683;-74
2022/05/29 03:58:57;;;;;;;9.02;2.78;;;10.10;99.90;;;;;;4990096;28;20050;-74
2022/05/29 04:01:23;;;;;;;9.77;3.13;;;10.10;99.90;;;;;;5005698;28;20052;-73
2022/05/29 04:03:49;;;;;;;9.77;3.47;;;10.10;99.90;;;;;;4993202;28;20085;-73
2022/05/29 04:06:15;;;;;;;8.25;2.88;;;10.10;99.90;;;;;;4992354;28;20081;-73
2022/05/29 04:14:09;;;;;;;7.32;2.40;;;10.20;99.90;;;;;;5007682;28;20042;-74
2022/05/29 04:16:35;;;;;;;9.52;2.88;;;10.20;99.90;;;;;;4992452;28;20038;-73
2022/05/29 04:19:00;;;;;;;11.43;2.75;;;10.20;99.90;;;;;;5010301;28;20521;-73
2022/05/29 04:21:26;;;;;;;12.30;2.95;;;10.20;99.90;;;;;;4991895;28;20049;-73
2022/05/29 04:23:52;;;;;;;12.88;3.25;;;10.20;99.90;;;;;;4992638;28;20065;-73
2022/05/29 04:26:18;;;;;;;9.43;3.53;;;10.20;99.90;;;;;;4993646;28;20495;-73
2022/05/29 04:28:44;;;;;;;11.80;2.75;;;10.20;99.90;;;;;;4989982;28;20057;-74
2022/05/29 04:31:11;;;;;;;13.82;2.97;;;10.20;99.90;;;;;;4990755;28;20042;-74
2022/05/29 04:33:36;;;;;;;10.02;2.75;;;10.20;99.90;;;;;;4992485;28;20029;-74
2022/05/29 04:36:03;;;;;;;9.43;2.72;;;10.30;99.90;;;;;;4992472;28;20169;-74
2022/05/29 04:38:29;;;;;;;9.77;2.38;;;10.30;99.90;;;;;;4990869;28;20117;-74
2022/05/29 04:40:56;;;;;;;8.52;2.30;;;10.30;99.90;;;;;;4989163;28;20062;-74
2022/05/29 04:43:21;;;;;;;8.40;2.60;;;10.30;99.90;;;;;;5008209;28;20057;-74
2022/05/29 04:45:53;;;;;;;8.75;2.53;;;10.40;99.90;;;;;;4988024;28;20562;-74
2022/05/29 04:48:19;;;;;;;10.90;2.22;;;10.40;99.90;;;;;;4991597;28;20045;-74
2022/05/29 04:50:45;;;;;;;11.88;2.97;;;10.40;99.90;;;;;;4992015;28;20050;-74
2022/05/29 04:53:11;;;;;;;10.63;2.60;;;10.50;99.90;;;;;;4992705;28;20049;-74
2022/05/29 04:55:39;;;;;;;8.07;1.95;;;10.40;99.90;;;;;;4993512;28;20045;-74
2022/05/29 04:58:06;;;;;;;10.38;2.40;;;10.40;99.90;;;;;;4990865;28;20053;-74
2022/05/29 05:00:32;;;;;;;9.98;2.33;;;10.30;99.90;;;;;;4989435;28;20056;-74
2022/05/29 05:02:58;;;;;;;9.07;2.33;;;10.30;99.90;;;;;;4990146;28;20062;-72
2022/05/29 05:05:24;;;;;;;8.75;2.20;;;10.30;99.90;;;;;;4992189;28;20042;-73
2022/05/29 05:07:49;;;;;;;12.27;2.55;;;10.20;99.90;;;;;;4992274;28;20053;-74
2022/05/29 05:10:17;;;;;;;10.40;2.45;;;10.20;99.90;;;;;;4974412;28;20042;-73
2022/05/29 05:12:43;;;;;;;12.13;2.80;;;10.20;99.90;;;;;;4991847;28;20038;-73
2022/05/29 05:15:11;;;;;;;14.15;2.75;;;10.30;99.90;;;;;;4992064;28;20034;-73
2022/05/29 05:17:37;;;;;;;7.97;3.00;;;10.30;99.90;;;;;;5007760;28;20120;-73
2022/05/29 05:20:04;;;;;;;10.25;3.08;;;10.40;99.90;;;;;;4994568;28;20563;-73
2022/05/29 05:22:30;;;;;;;9.30;2.50;;;10.40;99.90;;;;;;4994864;28;20099;-73
2022/05/29 05:24:55;;;;;;;11.73;2.75;;;10.50;99.90;;;;;;4995818;28;20049;-74
2022/05/29 05:27:21;;;;;;;7.60;2.60;;;10.50;99.90;;;;;;4979402;28;20045;-73
2022/05/29 05:29:47;;;;;;;11.02;2.70;;;10.60;99.90;;;;;;4995538;28;20046;-74
2022/05/29 05:32:13;;;;;;;7.55;1.98;;;10.70;99.90;;;;;;4995950;28;20038;-73
2022/05/29 05:34:40;;;;;;;13.80;4.13;;;10.80;99.90;;;;;;5012432;28;20069;-73
2022/05/29 05:37:06;;;;;;;10.60;2.47;;;10.80;99.90;;;;;;4996796;28;20042;-74
2022/05/29 05:39:32;;;;;;;10.07;2.15;;;10.90;99.90;;;;;;4998433;28;20044;-74
2022/05/29 05:41:57;;;;;;;8.02;2.20;;;11.00;99.90;;;;;;4998151;28;20065;-74
2022/05/29 05:44:23;;;;;;;6.50;2.15;;;11.00;99.90;;;;;;4995563;28;20045;-74
2022/05/29 05:46:53;;;;;;;8.95;2.17;;;11.10;99.90;;;;;;4997219;28;20048;-73
2022/05/29 05:49:21;;;;;;;7.47;2.33;;;11.10;99.90;;;;;;4996798;28;20100;-73
2022/05/29 05:51:47;;;;;;;15.77;2.63;;;11.10;99.90;;;;;;4980037;28;20402;-73
2022/05/29 05:54:14;;;;;;;13.43;2.35;;;11.00;99.90;;;;;;4996958;28;20103;-73
2022/05/29 05:56:44;;;;;;;11.30;2.42;;;10.90;99.90;;;;;;5007138;28;20037;-73
2022/05/29 05:59:10;;;;;;;11.93;2.45;;;10.90;99.90;;;;;;5011891;28;20065;-73
2022/05/29 06:01:37;;;;;;;9.55;2.10;;;11.00;99.90;;;;;;4995183;28;20042;-73
2022/05/29 06:04:03;;;;;;;10.15;2.15;;;11.10;99.90;;;;;;4996795;28;20049;-73
2022/05/29 06:06:29;;;;;;;10.90;2.10;;;11.10;99.90;;;;;;4995281;28;20129;-74
2022/05/29 06:08:56;;;;;;;7.13;2.00;;;10.90;99.90;;;;;;4992872;28;20438;-74
2022/05/29 06:11:23;;;;;;;11.57;2.35;;;10.70;99.90;;;;;;4993696;28;20046;-74
2022/05/29 06:13:49;;;;;;;11.15;3.00;;;10.60;99.90;;;;;;4993514;28;20468;-74
2022/05/29 06:16:14;;;;;;;8.90;2.50;;;10.70;99.90;;;;;;5006157;28;20042;-74
2022/05/29 06:18:40;;;;;;;10.52;2.10;;;10.70;99.90;;;;;;4993204;28;20034;-74
2022/05/29 06:21:06;;;;;;;12.05;2.67;;;10.80;99.90;;;;;;4991814;28;20050;-75
2022/05/29 06:23:35;;;;;;;11.75;2.28;;;10.80;99.90;;;;;;4993588;28;20038;-74
2022/05/29 06:26:03;;;;;;;16.15;3.25;;;10.90;99.90;;;;;;4992808;28;20065;-75
2022/05/29 06:28:28;;;;;;;12.75;2.65;;;11.00;99.90;;;;;;4992310;28;20472;-75
2022/05/29 06:30:54;;;;;;;12.15;2.47;;;11.00;99.90;;;;;;4990837;28;20038;-75
2022/05/29 06:33:19;;;;;;;13.30;2.40;;;11.00;99.90;;;;;;4997241;28;20042;-75
2022/05/29 06:35:45;;;;;;;11.10;2.28;;;11.10;99.90;;;;;;4990763;28;20049;-75
2022/05/29 06:38:10;;;;;;;10.65;2.72;;;11.10;99.90;;;;;;4985407;28;20043;-75
2022/05/29 06:40:39;;;;;;;12.00;2.25;;;11.30;99.90;;;;;;4982982;28;20142;-75
2022/05/29 06:43:05;;;;;;;9.77;2.30;;;11.30;99.90;;;;;;5009973;28;20809;-75
2022/05/29 06:45:30;;;;;;;11.27;2.58;;;11.30;99.90;;;;;;4992378;28;20082;-75
2022/05/29 06:47:55;;;;;;;13.07;3.08;;;11.40;99.90;;;;;;4992157;28;20105;-74
2022/05/29 06:50:21;;;;;;;12.80;2.58;;;11.50;99.90;;;;;;4991995;28;20046;-74
2022/05/29 06:52:47;;;;;;;8.07;2.38;;;11.60;99.90;;;;;;4988416;28;20062;-75
2022/05/29 06:55:13;;;;;;;9.43;2.35;;;11.70;99.90;;;;;;4990716;28;20040;-72
2022/05/29 06:57:43;;;;;;;8.93;1.83;;;11.80;99.90;;;;;;4991719;28;20376;-77
2022/05/29 07:08:41;;;;;;;10.93;2.10;;;12.10;99.90;;;;;;4990006;28;19918;-77
2022/05/29 07:11:15;;;;;;;8.38;2.10;;;12.10;99.90;;;;;;4989038;28;20061;-74
2022/05/29 07:13:41;;;;;;;8.38;1.90;;;12.20;99.90;;;;;;4970618;28;20042;-75
2022/05/29 07:16:07;;;;;;;8.43;2.25;;;12.00;99.90;;;;;;4988740;28;20066;-76
2022/05/29 07:18:33;;;;;;;7.57;1.85;;;12.10;99.90;;;;;;4991347;28;20082;-76
2022/05/29 07:21:00;;;;;;;9.40;2.40;;;12.00;99.90;;;;;;4990178;28;20054;-72
2022/05/29 07:23:26;;;;;;;12.23;2.78;;;12.10;99.90;;;;;;5004698;28;20046;-73
2022/05/29 07:25:52;;;;;;;7.90;1.60;;;12.00;99.90;;;;;;4990033;28;20364;-73
2022/05/29 07:28:17;;;;;;;9.25;1.80;;;11.90;99.90;;;;;;4991440;28;20133;-74
2022/05/29 07:30:43;;;;;;;9.30;2.03;;;12.00;99.90;;;;;;4990443;28;20376;-74
2022/05/29 07:33:09;;;;;;;9.80;2.42;;;12.10;99.90;;;;;;4989149;28;20669;-74
2022/05/29 07:35:35;;;;;;;9.60;2.30;;;12.20;99.90;;;;;;4989360;28;20129;-73
2022/05/29 07:38:01;;;;;;;12.68;2.45;;;12.20;99.90;;;;;;4986004;28;20053;-73
2022/05/29 07:40:26;;;;;;;10.32;2.28;;;12.20;99.90;;;;;;4989397;28;20043;-73
2022/05/29 07:45:36;;;;;;;6.72;2.08;;;12.00;99.90;;;;;;5004193;28;20043;-73
2022/05/29 07:48:02;;;;;;;10.40;2.03;;;12.00;99.90;;;;;;4973342;28;20495;-73
2022/05/29 07:50:27;;;;;;;10.43;2.30;;;12.00;99.90;;;;;;4990433;28;20038;-74
2022/05/29 07:52:54;;;;;;;9.55;2.00;;;12.00;99.90;;;;;;4975342;28;20038;-74
2022/05/29 07:55:20;;;;;;;10.70;2.15;;;12.00;99.90;;;;;;4987367;28;20118;-74
2022/05/29 07:57:46;;;;;;;7.13;1.95;;;12.00;99.90;;;;;;4987800;28;20048;-74
2022/05/29 08:00:15;;;;;;;5.43;1.40;;;12.00;99.90;;;;;;4988366;28;20070;-74
2022/05/29 08:02:41;;;;;;;6.40;1.73;;;12.20;99.90;;;;;;4985725;28;20128;-74
2022/05/29 08:05:09;;;;;;;5.80;1.80;;;12.20;99.90;;;;;;4988669;28;20045;-74
2022/05/29 08:07:34;;;;;;;6.30;1.63;;;12.40;99.90;;;;;;4991978;28;20069;-73
2022/05/29 08:10:00;;;;;;;8.77;1.90;;;12.50;99.90;;;;;;4987149;28;20423;-73
2022/05/29 08:12:26;;;;;;;6.40;1.30;;;12.60;99.90;;;;;;4991538;28;20061;-73
2022/05/29 08:14:51;;;;;;;6.70;1.30;;;12.70;99.90;;;;;;4993713;28;20041;-74
2022/05/29 08:17:17;;;;;;;6.07;1.27;;;12.70;99.90;;;;;;4992796;28;20045;-74
2022/05/29 08:19:42;;;;;;;5.65;1.45;;;12.90;99.90;;;;;;4977128;28;20045;-75
2022/05/29 08:22:08;;;;;;;4.90;1.30;;;12.80;99.90;;;;;;4990095;28;20107;-74
2022/05/29 08:33:00;;;;;;;4.53;1.45;;;12.90;99.90;;;;;;4993541;28;20451;-75
2022/05/29 08:35:26;;;;;;;8.13;1.58;;;12.80;99.90;;;;;;4992765;28;20038;-73
2022/05/29 08:37:52;;;;;;;3.38;1.00;;;12.80;99.90;;;;;;4989580;28;20100;-74
2022/05/29 08:40:17;;;;;;;3.67;0.98;;;12.70;99.90;;;;;;4989840;28;20045;-74
2022/05/29 08:42:43;;;;;;;7.35;1.70;;;12.80;99.90;;;;;;4987706;28;20042;-74
2022/05/29 08:45:12;;;;;;;5.80;1.50;;;12.70;99.90;;;;;;4989870;28;20403;-74
2022/05/29 08:47:39;;;;;;;4.35;1.02;;;12.90;99.90;;;;;;5003726;28;20042;-75
2022/05/29 08:50:06;;;;;;;5.55;1.55;;;13.20;99.90;;;;;;5007815;28;20545;-74
2022/05/29 08:52:43;;;;;;;3.33;0.98;;;13.30;99.90;;;;;;4992286;28;20044;-74
2022/05/29 08:55:31;;;;;;;4.82;1.25;;;13.30;99.90;;;;;;4991945;28;20783;-75
2022/05/29 08:58:20;;;;;;;5.43;1.02;;;13.20;99.90;;;;;;4993486;28;20034;-74
2022/05/29 09:01:27;;;;;;;5.35;1.20;;;12.80;99.90;;;;;;4991643;28;20133;-75
2022/05/29 09:03:55;;;;;;;5.47;1.13;;;12.50;99.90;;;;;;4989891;28;20147;-74
2022/05/29 09:06:27;;;;;;;7.07;1.27;;;12.60;99.90;;;;;;4991445;28;20129;-74
2022/05/29 09:08:55;;;;;;;;;;;12.60;99.90;;;;;;4991905;28;20085;-74
2022/05/29 09:11:31;;;;;;;4.65;1.55;;;12.60;99.90;;;;;;4995070;28;19925;-74
2022/05/29 09:14:09;;;;;;;4.57;1.35;;;12.70;99.90;;;;;;4991855;28;20421;-75
2022/05/29 09:16:44;;;;;;;7.00;1.48;;;12.70;99.90;;;;;;4988939;28;20053;-74
2022/05/29 09:19:34;;;;;;;7.90;1.85;;;12.60;99.90;;;;;;5007960;28;20067;-74
2022/05/29 09:22:05;;;;;;;6.82;1.45;;;12.50;99.90;;;;;;4996195;28;20038;-75
2022/05/29 09:24:42;;;;;;;8.70;1.38;;;12.60;99.90;;;;;;4991208;28;20091;-74
2022/05/29 09:27:10;;;;;;;6.47;1.52;;;12.40;99.90;;;;;;4993456;28;20037;-74
2022/05/29 09:29:36;;;;;;;5.88;1.52;;;12.50;99.90;;;;;;4990880;28;20037;-74
2022/05/29 09:32:04;;;;;;;6.40;1.42;;;12.50;99.90;;;;;;4994116;28;20049;-74
2022/05/29 09:34:30;;;;;;;3.63;1.30;;;12.00;99.90;;;;;;4988919;28;20129;-74
2022/05/29 09:37:00;;;;;;;3.92;0.98;;;12.30;99.90;;;;;;4980339;28;20158;-75
2022/05/29 09:39:37;;;;;;;7.43;1.23;;;12.50;99.90;;;;;;4986952;28;20092;-75
2022/05/29 09:42:17;;;;;;;4.07;1.00;;;12.60;99.90;;;;;;4989990;28;20133;-73
2022/05/29 09:45:22;;;;;;;5.25;1.30;;;12.90;99.90;;;;;;4965346;28;20049;-75
2022/05/29 09:50:58;;;;;;;4.22;1.20;;;13.40;99.90;;;;;;4989551;28;20046;-75
2022/05/29 09:53:40;;;;;;;6.85;1.25;;;13.70;99.90;;;;;;4991252;28;20042;-74
2022/05/29 09:56:08;;;;;;;6.63;1.38;;;13.90;99.90;;;;;;4987154;28;20045;-75
2022/05/29 09:58:50;;;;;;;4.15;1.10;;;13.70;99.90;;;;;;4980970;28;20718;-74
2022/05/29 10:01:29;;;;;;;5.63;1.10;;;13.60;99.90;;;;;;4985890;28;20046;-74
2022/05/29 10:03:57;;;;;;;5.25;1.23;;;13.50;99.90;;;;;;4989776;28;20038;-76
2022/05/29 10:06:23;;;;;;;9.55;1.92;;;13.40;99.90;;;;;;4993702;28;20069;-75
2022/05/29 10:08:52;;;;;;;5.07;1.42;;;12.90;99.90;;;;;;4993650;28;20455;-75
2022/05/29 10:11:28;;;;;;;6.95;1.70;;;12.90;99.90;;;;;;4991051;28;20115;-75
2022/05/29 10:13:53;;;;;;;6.35;1.70;;;12.70;99.90;;;;;;4984325;28;20372;-75
2022/05/29 10:16:37;;;;;;;6.88;2.17;;;12.50;99.90;;;;;;4992836;28;20046;-75
2022/05/29 10:19:09;;;;;;;12.27;2.15;;;12.20;99.90;;;;;;4992441;28;20034;-78
2022/05/29 10:21:49;;;;;;;5.50;1.30;;;12.40;99.90;;;;;;4993606;28;20033;-76
2022/05/29 10:24:23;;;;;;;8.32;1.80;;;12.60;99.90;;;;;;4994646;28;20399;-74
2022/05/29 10:26:56;;;;;;;6.70;1.55;;;12.90;99.90;;;;;;4993884;28;20121;-74
2022/05/29 10:29:31;;;;;;;5.65;1.55;;;13.20;99.90;;;;;;4994107;28;20129;-74
2022/05/29 10:31:59;;;;;;;8.10;1.60;;;13.30;99.90;;;;;;4991641;28;20049;-75
2022/05/29 10:34:31;;;;;;;6.68;1.58;;;13.50;99.90;;;;;;4991357;28;20034;-75
2022/05/29 10:36:58;;;;;;;8.20;1.17;;;13.50;99.90;;;;;;4994598;28;20038;-74
2022/05/29 10:39:31;;;;;;;7.28;1.88;;;13.50;99.90;;;;;;4995039;28;20052;-74
2022/05/29 10:41:58;;;;;;;4.35;1.25;;;13.40;99.90;;;;;;5007314;28;20609;-74
2022/05/29 10:44:46;;;;;;;8.48;1.70;;;13.40;99.90;;;;;;4987179;28;20065;-74
2022/05/29 10:47:14;;;;;;;3.97;1.30;;;13.10;99.90;;;;;;4992204;28;20046;-75
2022/05/29 10:50:04;;;;;;;9.70;1.52;;;13.10;99.90;;;;;;4988409;28;20435;-75
2022/05/29 10:52:30;;;;;;;9.73;1.50;;;13.10;99.90;;;;;;4992461;28;20041;-75
2022/05/29 10:55:16;;;;;;;8.77;1.75;;;13.20;99.90;;;;;;4998015;28;20037;-76
2022/05/29 10:57:51;;;;;;;5.85;1.20;;;13.20;99.90;;;;;;4991933;28;20036;-74
2022/05/29 11:00:39;;;;;;;7.90;2.17;;;13.30;99.90;;;;;;4990269;28;20423;-74
2022/05/29 11:03:51;;;;;;;7.65;1.30;;;13.30;99.90;;;;;;4993262;28;20717;-73
2022/05/29 11:06:59;;;;;;;8.00;1.70;;;13.40;99.90;;;;;;5009594;28;20498;-74
2022/05/29 11:09:40;;;;;;;5.78;1.42;;;13.30;99.90;;;;;;4959393;28;20518;-74
2022/05/29 11:12:28;;;;;;;5.65;1.10;;;13.50;99.90;;;;;;4992247;28;20045;-74
2022/05/29 11:15:11;;;;;;;6.65;1.15;;;13.50;99.90;;;;;;4973111;28;20037;-74
2022/05/29 11:18:21;;;;;;;6.13;1.52;;;13.90;99.90;;;;;;4988355;28;20038;-74
2022/05/29 11:21:04;;;;;;;2.58;0.80;;;14.20;99.90;;;;;;4980376;28;20128;-75
2022/05/29 11:23:36;;;;;;;12.38;1.73;;;14.20;99.90;;;;;;5010028;28;20519;-74
2022/05/29 11:26:26;;;;;;;6.00;1.30;;;14.10;99.90;;;;;;4994527;28;20038;-74
2022/05/29 11:29:16;;;;;;;6.47;1.60;;;13.90;99.90;;;;;;4994243;28;20035;-74
2022/05/29 11:31:54;;;;;;;6.57;1.58;;;13.60;99.90;;;;;;4985523;28;20045;-75
2022/05/29 11:34:28;;;;;;;5.50;1.45;;;13.10;99.90;;;;;;5003458;28;20034;-75
2022/05/29 11:37:01;;;;;;;3.42;1.25;;;13.20;99.90;;;;;;5008704;28;20107;-75
2022/05/29 11:39:41;;;;;;;8.00;1.77;;;13.30;99.90;;;;;;4991758;28;20507;-75
2022/05/29 11:42:16;;;;;;;4.63;1.45;;;13.10;99.90;;;;;;4990959;28;20511;-74
2022/05/29 11:44:58;;;;;;;5.38;1.40;;;13.30;99.90;;;;;;4992808;28;20052;-75
2022/05/29 11:53:24;;;;;;;4.88;1.40;;;13.10;99.90;;;;;;5000582;28;20423;-74
2022/05/29 11:55:54;;;;;;;7.95;1.63;;;13.20;99.90;;;;;;4968963;28;20030;-74
2022/05/29 11:58:52;;;;;;;5.47;1.77;;;13.30;99.90;;;;;;4984519;28;20029;-75
2022/05/29 12:01:29;;;;;;;4.03;1.42;;;13.40;99.90;;;;;;4953414;28;20047;-75
2022/05/29 12:04:01;;;;;;;5.05;1.40;;;13.70;99.90;;;;;;5008378;28;20042;-75
2022/05/29 12:06:34;;;;;;;7.07;1.73;;;14.10;99.90;;;;;;4991074;28;20557;-74
2022/05/29 12:09:16;;;;;;;6.10;1.48;;;14.30;99.90;;;;;;4998320;28;20046;-74
2022/05/29 12:12:07;;;;;;;4.35;1.25;;;14.40;99.90;;;;;;4985365;28;20062;-74
2022/05/29 12:14:54;;;;;;;10.18;1.42;;;14.50;99.90;;;;;;4992742;28;20132;-74
2022/05/29 12:17:51;;;;;;;7.05;1.60;;;14.70;99.90;;;;;;5010136;28;20053;-75
2022/05/29 12:20:35;;;;;;;6.97;1.25;;;14.80;99.90;;;;;;4975348;28;20049;-75
2022/05/29 12:23:09;;;;;;;7.57;1.73;;;14.90;99.90;;;;;;5009535;23;20509;-74
2022/05/29 12:25:55;;;;;;;7.50;1.45;;;14.90;99.90;;;;;;5030014;28;20414;-75
2022/05/29 12:28:45;;;;;;;5.63;1.45;;;14.40;99.90;;;;;;4986019;28;20148;-74
2022/05/29 12:31:34;;;;;;;5.55;1.67;;;14.30;99.90;;;;;;5008029;28;20466;-75
2022/05/29 12:34:00;;;;;;;11.35;1.40;;;14.30;99.90;;;;;;5010734;28;20095;-75
2022/05/29 12:37:03;;;;;;;5.38;1.50;;;14.30;99.90;;;;;;5019950;28;20043;-75
2022/05/29 12:39:55;;;;;;;6.75;1.40;;;14.10;99.90;;;;;;5028819;28;21187;-73
2022/05/29 12:42:42;;;;;;;6.78;1.42;;;13.80;99.90;;;;;;5010816;28;20045;-73
2022/05/29 12:45:30;;;;;;;6.07;1.30;;;13.70;99.90;;;;;;5011823;28;20085;-72
2022/05/29 12:48:24;;;;;;;9.85;1.83;;;13.40;99.90;;;;;;5009708;28;20480;-72
2022/05/29 12:50:52;;;;;;;7.68;1.83;;;13.40;99.90;;;;;;5017584;28;20037;-72
2022/05/29 12:53:28;;;;;;;6.10;1.30;;;13.40;99.90;;;;;;5014442;28;20124;-73
2022/05/29 12:56:26;;;;;;;3.90;1.20;;;13.60;99.90;;;;;;5018443;28;20036;-73
2022/05/29 12:59:30;;;;;;;6.63;1.42;;;13.70;99.90;;;;;;5015080;28;20064;-73
2022/05/29 13:02:19;;;;;;;4.82;1.30;;;13.60;99.90;;;;;;5001385;28;20052;-73
2022/05/29 13:05:11;;;;;;;5.25;1.38;;;13.60;99.90;;;;;;5020655;28;20053;-73
2022/05/29 13:08:00;;;;;;;5.75;1.65;;;13.90;99.90;;;;;;5009956;28;20049;-73
2022/05/29 13:10:32;;;;;;;7.35;1.30;;;14.00;99.90;;;;;;5002025;28;20491;-73
2022/05/29 13:13:13;;;;;;;;;;;14.00;99.90;;;;;;5009867;28;21468;-73
2022/05/29 13:15:41;;;;;;;6.93;1.88;;;14.20;99.90;;;;;;4991264;28;20321;-73
2022/05/29 13:18:58;;;;;;;6.57;1.67;;;14.40;99.90;;;;;;5010229;28;20184;-73
2022/05/29 13:21:15;;;;;;;5.80;1.00;;;14.50;99.90;;;;;;5011345;28;20041;-73
2022/05/29 13:23:48;;;;;;;5.63;1.42;;;14.80;99.90;;;;;;5024403;28;20061;-73
2022/05/29 13:26:21;;;;;;;5.05;1.45;;;15.00;99.90;;;;;;5011078;28;20033;-72
2022/05/29 13:28:55;;;;;;;7.20;1.55;;;15.20;99.90;;;;;;5022278;28;20148;-72
2022/05/29 13:31:21;;;;;;;7.93;1.60;;;15.40;99.90;;;;;;5012017;28;20046;-72
2022/05/29 13:34:18;;;;;;;7.97;1.65;;;15.50;99.90;;;;;;5012396;28;20049;-72
2022/05/29 13:36:53;;;;;;;10.07;3.05;;;15.20;99.80;;;;;;4995822;28;20037;-72
2022/05/29 13:39:51;;;;;;;8.02;1.73;;;15.20;99.90;;;;;;5009523;28;20060;-72
2022/05/29 13:42:29;;;;;;;5.22;1.42;;;14.90;99.90;;;;;;5012986;28;20056;-72
2022/05/29 13:44:55;;;;;;;6.93;1.55;;;14.70;99.90;;;;;;5014538;28;20049;-72
2022/05/29 13:47:22;;;;;;;6.15;1.10;;;14.80;99.90;;;;;;5013911;28;20045;-72
2022/05/29 13:50:11;;;;;;;3.90;1.27;;;14.90;99.90;;;;;;5022866;28;20053;-73
2022/05/29 13:52:59;;;;;;;7.95;1.40;;;14.70;99.90;;;;;;5015285;28;20467;-73